Aviation Digital Data Service (ADDS)

Output produced by METARs form (1118 UTC 11 May 2021)
found at http://www.aviationweather.gov/metar/data/
 
Forecast for: ROAH (NAHA (CIV/JASDF), JP)
Text: TAF ROAH 110513Z 1106/1212 18010KT 9999 FEW008 BKN015
Forecast period: 0600 UTC 11 May 2021 to 1200 UTC 12 May 2021
Forecast type: FROM: standard forecast or significant change
Winds: from the S (180 degrees) at 12 MPH (10 knots; 5.1 m/s)
Visibility: 6 or more miles (10+ km)
Ceiling: 1500 feet AGL
Clouds: few clouds at 800 feet AGL
broken clouds at 1500 feet AGL
Weather: no significant weather forecast for this period
Text: TEMPO 1112/1200 FEW005 BKN008
Forecast period: 1200 UTC 11 May 2021 to 0000 UTC 12 May 2021
Forecast type: TEMPORARY: The following changes expected for less than half the time period
Visibility: missing
Ceiling: 800 feet AGL
Clouds: few clouds at 500 feet AGL
broken clouds at 800 feet AGL
Weather: no significant weather forecast for this period